Time;durP1;ratioP1;P1;durP2;ratioP2;P2;SDS_P1;SDS_P2;PMS_P1;PMS_P2;Temp;Humidity;BMP_temperature;BMP_pressure;BME280_temperature;BME280_humidity;BME280_pressure;Samples;Min_cycle;Max_cycle;Signal;HPM_P1;HPM_P2
2023/05/21 00:00:19;;;;;;;13.23;10.05;;;14.20;99.90;;;;;;5049790;28;20029;-78
2023/05/21 00:02:45;;;;;;;14.70;10.15;;;14.30;99.90;;;;;;5055442;28;20071;-76
2023/05/21 00:05:13;;;;;;;13.07;9.45;;;14.30;99.90;;;;;;5049891;28;20025;-77
2023/05/21 00:07:39;;;;;;;13.23;9.63;;;14.30;99.90;;;;;;5052743;28;20029;-77
2023/05/21 00:10:05;;;;;;;13.43;9.90;;;14.30;99.90;;;;;;5050507;28;20540;-77
2023/05/21 00:12:31;;;;;;;16.23;10.18;;;14.40;99.90;;;;;;5054644;28;20074;-77
2023/05/21 00:14:57;;;;;;;12.00;8.85;;;14.40;99.90;;;;;;5050779;28;20471;-77
2023/05/21 00:17:24;;;;;;;11.75;8.68;;;14.40;99.90;;;;;;5047373;28;20056;-77
2023/05/21 00:19:50;;;;;;;11.73;8.10;;;14.30;99.90;;;;;;5048987;28;20021;-77
2023/05/21 00:22:16;;;;;;;11.57;8.32;;;14.30;99.90;;;;;;5050792;28;20574;-77
2023/05/21 00:24:44;;;;;;;8.80;6.50;;;14.40;99.90;;;;;;5048294;28;20032;-78
2023/05/21 00:27:13;;;;;;;10.80;7.75;;;14.50;99.90;;;;;;5048071;28;20037;-77
2023/05/21 00:29:39;;;;;;;14.65;8.23;;;14.50;99.90;;;;;;5048369;28;20056;-76
2023/05/21 00:32:05;;;;;;;12.32;8.45;;;14.50;99.90;;;;;;5051135;28;20083;-77
2023/05/21 00:34:30;;;;;;;15.48;8.95;;;14.50;99.90;;;;;;5053466;28;20035;-77
2023/05/21 00:36:56;;;;;;;13.75;8.32;;;14.40;99.90;;;;;;5048990;28;20064;-77
2023/05/21 00:39:23;;;;;;;13.40;8.93;;;14.30;99.90;;;;;;5050296;28;20059;-77
2023/05/21 00:41:49;;;;;;;12.00;8.57;;;14.30;99.90;;;;;;5054466;28;20840;-78
2023/05/21 00:44:17;;;;;;;11.35;8.88;;;14.20;99.90;;;;;;5053105;28;20032;-77
2023/05/21 00:46:43;;;;;;;14.05;9.55;;;14.30;99.90;;;;;;5050524;28;20021;-77
2023/05/21 00:49:10;;;;;;;14.10;10.10;;;14.30;99.90;;;;;;5048992;28;20046;-77
2023/05/21 00:51:36;;;;;;;14.68;9.43;;;14.30;99.90;;;;;;5047539;28;20486;-77
2023/05/21 00:54:02;;;;;;;14.02;10.00;;;14.30;99.90;;;;;;5052374;28;20044;-79
2023/05/21 00:56:28;;;;;;;12.00;9.05;;;14.20;99.90;;;;;;5055280;28;20071;-77
2023/05/21 00:58:56;;;;;;;13.50;10.35;;;14.20;99.90;;;;;;5050822;28;20600;-77
2023/05/21 01:01:24;;;;;;;12.50;8.15;;;14.20;99.90;;;;;;5052129;28;20127;-77
2023/05/21 01:03:53;;;;;;;15.23;9.95;;;14.30;99.90;;;;;;5049704;28;20040;-77
2023/05/21 01:06:19;;;;;;;13.55;9.02;;;14.30;99.90;;;;;;5047171;28;20486;-77
2023/05/21 01:08:45;;;;;;;13.15;9.52;;;14.30;99.90;;;;;;5050187;28;20067;-76
2023/05/21 01:11:11;;;;;;;13.60;9.43;;;14.20;99.90;;;;;;5050699;28;20057;-75
2023/05/21 01:13:40;;;;;;;12.90;9.73;;;14.20;99.90;;;;;;5051606;28;20883;-77
2023/05/21 01:16:07;;;;;;;12.98;9.68;;;14.20;99.90;;;;;;5055351;28;20025;-77
2023/05/21 01:18:34;;;;;;;13.02;8.75;;;14.20;99.90;;;;;;5051605;28;20028;-77
2023/05/21 01:21:01;;;;;;;14.13;8.68;;;14.20;99.90;;;;;;5053299;28;20044;-78
2023/05/21 01:23:27;;;;;;;12.15;9.10;;;14.30;99.90;;;;;;5054446;28;20034;-77
2023/05/21 01:25:53;;;;;;;15.38;9.35;;;14.30;99.90;;;;;;5052995;28;20459;-77
2023/05/21 01:28:19;;;;;;;13.85;10.05;;;14.20;99.90;;;;;;5052846;28;20071;-77
2023/05/21 01:30:45;;;;;;;15.05;10.70;;;14.20;99.90;;;;;;5057009;28;20483;-77
2023/05/21 01:33:41;;;;;;;14.88;10.07;;;14.10;99.90;;;;;;5057185;28;20052;-78
2023/05/21 01:36:14;;;;;;;12.77;9.70;;;14.10;99.90;;;;;;5062246;28;20044;-79
2023/05/21 01:38:53;;;;;;;13.15;9.30;;;14.10;99.90;;;;;;5058245;28;20035;-78
2023/05/21 01:41:20;;;;;;;13.25;10.38;;;14.20;99.90;;;;;;5058109;28;20112;-77
2023/05/21 01:43:47;;;;;;;14.15;10.55;;;14.10;99.90;;;;;;5055015;28;20032;-78
2023/05/21 01:46:16;;;;;;;14.52;10.20;;;14.20;99.90;;;;;;5054250;28;20025;-77
2023/05/21 01:48:43;;;;;;;13.23;8.90;;;14.20;99.90;;;;;;5054453;28;20029;-77
2023/05/21 01:51:09;;;;;;;12.80;8.75;;;14.10;99.90;;;;;;5056069;28;20567;-77
2023/05/21 01:53:37;;;;;;;13.02;8.48;;;14.10;99.90;;;;;;5056714;28;20025;-77
2023/05/21 01:56:04;;;;;;;12.10;8.43;;;14.10;99.90;;;;;;5054908;28;20056;-78
2023/05/21 01:58:30;;;;;;;13.77;8.20;;;14.20;99.90;;;;;;5052497;28;20029;-77
2023/05/21 02:00:55;;;;;;;11.60;6.72;;;14.30;99.90;;;;;;5053146;28;20021;-77
2023/05/21 02:03:23;;;;;;;8.50;5.95;;;14.40;99.90;;;;;;5054662;28;20037;-77
2023/05/21 02:05:50;;;;;;;11.52;7.40;;;14.30;99.90;;;;;;5051209;28;20483;-78
2023/05/21 02:08:18;;;;;;;10.90;7.25;;;14.30;99.90;;;;;;5050503;28;20036;-77
2023/05/21 02:10:45;;;;;;;14.50;9.23;;;14.30;99.90;;;;;;5052502;28;20121;-79
2023/05/21 02:13:10;;;;;;;13.77;10.20;;;14.30;99.90;;;;;;5055089;28;20036;-78
2023/05/21 02:15:37;;;;;;;13.52;9.90;;;14.30;99.90;;;;;;5051086;28;20041;-77
2023/05/21 02:18:03;;;;;;;13.75;10.30;;;14.20;99.90;;;;;;5052613;28;20486;-79
2023/05/21 02:20:29;;;;;;;13.88;9.60;;;14.20;99.90;;;;;;5055317;28;20036;-77
2023/05/21 02:22:55;;;;;;;13.98;9.68;;;14.10;99.90;;;;;;5050505;28;20441;-78
2023/05/21 02:25:21;;;;;;;14.27;9.23;;;14.00;99.90;;;;;;5052091;28;20514;-77
2023/05/21 02:27:52;;;;;;;15.82;9.02;;;14.00;99.90;;;;;;5055707;28;20060;-77
2023/05/21 02:30:18;;;;;;;12.32;8.10;;;14.00;99.90;;;;;;5057344;28;20076;-78
2023/05/21 02:32:44;;;;;;;12.15;8.23;;;14.00;99.90;;;;;;5056501;28;20033;-78
2023/05/21 02:35:11;;;;;;;12.65;9.05;;;14.00;99.90;;;;;;5050331;28;20036;-77
2023/05/21 02:37:39;;;;;;;16.17;10.65;;;14.00;99.90;;;;;;5049526;28;20035;-77
2023/05/21 02:40:06;;;;;;;12.82;9.43;;;13.90;99.90;;;;;;5051111;28;20386;-77
2023/05/21 02:42:32;;;;;;;16.35;10.20;;;14.10;99.90;;;;;;5055114;28;20040;-78
2023/05/21 02:44:58;;;;;;;24.35;10.05;;;14.10;99.90;;;;;;5050492;28;20029;-78
2023/05/21 02:47:24;;;;;;;13.57;9.80;;;14.00;99.90;;;;;;5053971;28;20021;-77
2023/05/21 02:49:51;;;;;;;13.48;9.10;;;14.00;99.90;;;;;;5056054;28;20114;-77
2023/05/21 02:52:17;;;;;;;16.20;10.07;;;14.00;99.90;;;;;;5058302;28;20029;-76
2023/05/21 02:54:44;;;;;;;14.00;8.68;;;13.90;99.90;;;;;;5052175;28;20037;-76
2023/05/21 02:57:10;;;;;;;12.63;8.02;;;13.90;99.90;;;;;;5055546;28;20114;-76
2023/05/21 02:59:36;;;;;;;11.85;7.60;;;13.90;99.90;;;;;;5052745;28;20037;-76
2023/05/21 03:02:01;;;;;;;9.57;6.75;;;13.80;99.90;;;;;;5051636;28;20031;-76
2023/05/21 03:04:27;;;;;;;9.88;7.25;;;13.90;99.90;;;;;;5046636;28;20028;-77
2023/05/21 03:06:54;;;;;;;12.60;7.72;;;13.90;99.90;;;;;;5044976;28;20043;-77
2023/05/21 03:09:23;;;;;;;12.77;8.35;;;14.00;99.90;;;;;;5046400;28;20040;-76
2023/05/21 03:11:49;;;;;;;13.23;9.27;;;14.10;99.90;;;;;;5051915;28;20396;-77
2023/05/21 03:14:15;;;;;;;15.88;9.13;;;14.20;99.90;;;;;;5052821;28;20033;-78
2023/05/21 03:16:42;;;;;;;10.82;7.20;;;14.20;99.90;;;;;;5050000;28;20348;-77
2023/05/21 03:19:08;;;;;;;10.77;7.35;;;14.00;99.90;;;;;;5048140;28;20965;-76
2023/05/21 03:21:35;;;;;;;10.35;6.82;;;14.00;99.90;;;;;;5044379;28;20040;-78
2023/05/21 03:24:01;;;;;;;10.10;7.32;;;14.10;99.90;;;;;;5053810;28;20045;-76
2023/05/21 03:26:28;;;;;;;8.93;6.65;;;14.10;99.90;;;;;;5049210;28;20069;-77
2023/05/21 03:28:55;;;;;;;13.63;7.93;;;14.20;99.90;;;;;;5052700;28;20044;-77
2023/05/21 03:31:21;;;;;;;10.50;7.63;;;14.10;99.90;;;;;;5053524;28;20033;-77
2023/05/21 03:33:47;;;;;;;13.35;8.43;;;14.10;99.90;;;;;;5053250;28;20112;-77
2023/05/21 03:36:12;;;;;;;14.15;7.53;;;14.20;99.90;;;;;;5047308;28;20102;-77
2023/05/21 03:38:38;;;;;;;13.45;7.45;;;14.30;99.90;;;;;;5046690;28;20025;-77
2023/05/21 03:41:04;;;;;;;14.93;8.45;;;14.30;99.90;;;;;;5054303;28;20597;-77
2023/05/21 03:43:30;;;;;;;10.00;7.25;;;14.40;99.90;;;;;;5052019;28;20057;-77
2023/05/21 03:45:56;;;;;;;11.80;8.45;;;14.30;99.90;;;;;;5053708;28;20025;-78
2023/05/21 03:48:22;;;;;;;11.35;7.78;;;14.30;99.90;;;;;;5052856;28;20397;-77
2023/05/21 03:50:47;;;;;;;10.48;7.28;;;14.20;99.90;;;;;;5046077;28;20036;-77
2023/05/21 03:53:13;;;;;;;12.57;8.20;;;14.20;99.90;;;;;;5044501;28;20025;-77
2023/05/21 03:55:39;;;;;;;13.10;8.85;;;14.20;99.90;;;;;;5047018;28;20045;-77
2023/05/21 03:58:04;;;;;;;14.70;9.23;;;14.10;99.90;;;;;;5062014;28;20441;-77
2023/05/21 04:00:33;;;;;;;13.80;9.18;;;14.10;99.90;;;;;;5052711;28;20028;-76
2023/05/21 04:02:59;;;;;;;15.13;10.68;;;14.00;99.90;;;;;;5049322;28;20060;-76
2023/05/21 04:05:25;;;;;;;15.00;10.10;;;14.10;99.90;;;;;;5046241;28;20028;-77
2023/05/21 04:07:51;;;;;;;17.95;11.27;;;14.10;99.90;;;;;;5050200;28;20367;-78
2023/05/21 04:10:17;;;;;;;15.43;11.18;;;14.10;99.90;;;;;;5046236;28;20128;-78
2023/05/21 04:12:42;;;;;;;15.32;10.40;;;14.10;99.90;;;;;;5052029;28;20399;-77
2023/05/21 04:15:08;;;;;;;13.88;8.73;;;14.00;99.90;;;;;;5046464;28;20036;-77
2023/05/21 04:17:34;;;;;;;10.35;7.70;;;14.20;99.90;;;;;;5045092;28;20553;-77
2023/05/21 04:20:00;;;;;;;13.50;9.10;;;14.20;99.90;;;;;;5043719;28;20036;-77
2023/05/21 04:22:26;;;;;;;14.00;9.30;;;14.20;99.90;;;;;;5043796;28;20029;-75
2023/05/21 04:24:53;;;;;;;15.10;8.95;;;14.30;99.90;;;;;;5048331;28;20101;-77
2023/05/21 04:27:23;;;;;;;13.68;10.27;;;14.20;99.90;;;;;;5046470;28;20061;-77
2023/05/21 04:29:49;;;;;;;13.38;9.35;;;14.10;99.90;;;;;;5048512;28;20028;-77
2023/05/21 04:32:16;;;;;;;14.48;10.80;;;14.00;99.90;;;;;;5052642;28;20021;-77
2023/05/21 04:34:42;;;;;;;16.13;10.43;;;14.00;99.90;;;;;;5048382;28;20463;-77
2023/05/21 04:37:08;;;;;;;17.48;10.90;;;14.10;99.90;;;;;;5048596;28;20040;-77
2023/05/21 04:39:35;;;;;;;15.95;10.88;;;14.10;99.90;;;;;;5047422;28;20583;-77
2023/05/21 04:42:02;;;;;;;17.15;11.43;;;14.20;99.90;;;;;;5045114;28;20634;-77
2023/05/21 04:44:28;;;;;;;16.98;10.52;;;14.20;99.90;;;;;;5043575;28;20090;-77
2023/05/21 04:46:54;;;;;;;18.48;10.20;;;14.30;99.90;;;;;;5042381;28;20663;-76
2023/05/21 04:49:21;;;;;;;15.95;11.25;;;14.30;99.90;;;;;;5049599;28;20032;-77
2023/05/21 04:51:48;;;;;;;16.05;10.40;;;14.30;99.90;;;;;;5047125;28;20123;-77
2023/05/21 04:54:14;;;;;;;17.65;11.55;;;14.30;99.90;;;;;;5051655;28;20078;-79
2023/05/21 04:56:39;;;;;;;20.13;12.05;;;14.40;99.90;;;;;;5048202;28;20041;-79
2023/05/21 04:59:05;;;;;;;14.35;10.45;;;14.40;99.90;;;;;;5044607;28;20033;-78
2023/05/21 05:01:31;;;;;;;15.43;10.80;;;14.40;99.90;;;;;;5044496;28;20465;-79
2023/05/21 05:03:57;;;;;;;16.15;11.13;;;14.50;99.90;;;;;;5047853;28;20048;-78
2023/05/21 05:06:24;;;;;;;16.48;10.07;;;14.50;99.90;;;;;;5049603;28;20060;-79
2023/05/21 05:08:50;;;;;;;16.25;9.65;;;14.60;99.90;;;;;;5052133;28;20029;-78
2023/05/21 05:11:16;;;;;;;14.20;9.63;;;14.60;99.90;;;;;;5048744;28;20021;-78
2023/05/21 05:13:42;;;;;;;11.43;8.65;;;14.50;99.90;;;;;;5058618;28;25089;-79
2023/05/21 05:16:08;;;;;;;11.70;8.77;;;14.60;99.90;;;;;;5045977;28;20099;-78
2023/05/21 05:18:35;;;;;;;12.45;8.85;;;14.60;99.90;;;;;;5050535;28;20049;-78
2023/05/21 05:21:01;;;;;;;13.43;9.40;;;14.50;99.90;;;;;;5046764;28;20033;-77
2023/05/21 05:23:26;;;;;;;13.05;7.65;;;14.60;99.90;;;;;;5045922;28;20068;-79
2023/05/21 05:25:52;;;;;;;8.43;6.22;;;14.60;99.90;;;;;;5048403;28;20449;-77
2023/05/21 05:28:18;;;;;;;10.90;7.07;;;14.60;99.90;;;;;;5046390;28;20033;-77
2023/05/21 05:30:43;;;;;;;9.27;6.32;;;14.70;99.90;;;;;;5050099;28;20035;-76
2023/05/21 05:33:10;;;;;;;10.85;7.70;;;14.80;99.90;;;;;;5049064;28;20028;-76
2023/05/21 05:35:36;;;;;;;14.93;8.30;;;14.80;99.90;;;;;;5045616;28;20041;-77
2023/05/21 05:38:02;;;;;;;11.25;7.93;;;14.90;99.90;;;;;;5045470;28;20039;-77
2023/05/21 05:40:28;;;;;;;11.88;8.63;;;14.90;99.90;;;;;;5045187;28;20037;-77
2023/05/21 05:42:53;;;;;;;13.40;7.88;;;14.90;99.90;;;;;;5044205;28;20037;-78
2023/05/21 05:45:19;;;;;;;10.50;7.60;;;14.80;99.90;;;;;;5052848;28;20106;-78
2023/05/21 05:47:45;;;;;;;9.85;7.55;;;14.90;99.90;;;;;;5051338;28;20450;-77
2023/05/21 05:50:11;;;;;;;9.90;7.22;;;15.00;99.90;;;;;;5045497;28;20024;-77
2023/05/21 05:52:37;;;;;;;10.25;7.82;;;15.20;99.90;;;;;;5048685;28;20060;-77
2023/05/21 05:55:03;;;;;;;10.82;7.88;;;15.30;99.90;;;;;;5045243;28;20056;-79
2023/05/21 05:57:28;;;;;;;9.85;7.57;;;15.40;99.90;;;;;;5053921;28;20454;-78
2023/05/21 05:59:55;;;;;;;9.77;7.07;;;15.40;99.90;;;;;;5045852;28;20021;-79
2023/05/21 06:02:21;;;;;;;10.35;8.23;;;15.50;99.90;;;;;;5046637;28;20044;-78
2023/05/21 06:04:46;;;;;;;15.30;8.27;;;15.80;99.90;;;;;;5043252;28;20110;-78
2023/05/21 06:07:12;;;;;;;14.30;7.50;;;15.80;99.90;;;;;;5049900;28;20097;-77
2023/05/21 06:09:38;;;;;;;11.05;6.93;;;15.90;99.90;;;;;;5051637;28;20029;-80
2023/05/21 06:12:05;;;;;;;10.50;7.18;;;16.00;99.90;;;;;;5048496;28;20094;-78
2023/05/21 06:14:31;;;;;;;10.02;7.97;;;15.90;99.90;;;;;;5049759;28;20025;-80
2023/05/21 06:16:57;;;;;;;9.93;7.45;;;15.90;99.90;;;;;;5054268;28;20566;-79
2023/05/21 06:19:22;;;;;;;9.55;7.18;;;15.90;99.90;;;;;;5056561;28;20487;-79
2023/05/21 06:21:49;;;;;;;9.43;6.30;;;16.00;99.90;;;;;;5048759;28;20526;-80
2023/05/21 06:24:14;;;;;;;11.38;7.78;;;16.00;99.90;;;;;;5051859;28;20029;-79
2023/05/21 06:26:41;;;;;;;7.95;5.40;;;16.00;99.90;;;;;;5051548;28;20065;-77
2023/05/21 06:29:07;;;;;;;10.18;7.00;;;16.00;99.90;;;;;;5046044;28;20017;-80
2023/05/21 06:31:32;;;;;;;10.23;6.78;;;16.00;99.90;;;;;;5048686;28;20032;-79
2023/05/21 06:33:59;;;;;;;9.15;6.50;;;15.90;99.90;;;;;;5053245;28;20036;-79
2023/05/21 06:36:28;;;;;;;14.25;7.78;;;15.80;99.90;;;;;;5048065;28;20081;-80
2023/05/21 06:38:55;;;;;;;10.32;7.38;;;15.70;99.90;;;;;;5050668;28;20155;-77
2023/05/21 06:41:21;;;;;;;11.52;8.32;;;15.40;99.90;;;;;;5047891;28;20097;-78
2023/05/21 06:43:47;;;;;;;11.43;7.63;;;15.30;99.90;;;;;;5051168;28;20406;-79
2023/05/21 06:46:12;;;;;;;9.80;7.93;;;15.20;99.90;;;;;;5050310;28;20486;-79
2023/05/21 06:48:38;;;;;;;16.20;7.90;;;15.10;99.90;;;;;;5054349;28;20513;-78
2023/05/21 06:51:04;;;;;;;9.90;6.93;;;15.10;99.90;;;;;;5053000;28;20029;-79
2023/05/21 06:53:29;;;;;;;10.68;6.45;;;15.10;99.90;;;;;;5044341;28;20124;-79
2023/05/21 06:55:55;;;;;;;10.30;6.90;;;15.00;99.90;;;;;;5046990;28;20076;-79
2023/05/21 06:58:21;;;;;;;10.88;6.80;;;15.00;99.90;;;;;;5052287;28;20060;-76
2023/05/21 07:00:47;;;;;;;10.70;7.00;;;15.00;99.90;;;;;;5053137;28;20451;-78
2023/05/21 07:03:13;;;;;;;11.77;7.38;;;14.90;99.90;;;;;;5041897;28;20041;-79
2023/05/21 07:05:38;;;;;;;11.73;7.70;;;14.90;99.90;;;;;;5053053;28;20028;-78
2023/05/21 07:08:04;;;;;;;10.32;7.22;;;14.90;99.90;;;;;;5047045;28;20074;-78
2023/05/21 07:10:30;;;;;;;9.40;6.55;;;14.80;99.90;;;;;;5050082;28;20103;-78
2023/05/21 07:12:55;;;;;;;11.10;7.40;;;14.90;99.90;;;;;;5047769;28;20375;-79
2023/05/21 07:15:21;;;;;;;12.02;7.35;;;14.90;99.90;;;;;;5054012;28;20040;-77
2023/05/21 07:17:47;;;;;;;10.48;6.47;;;14.90;99.90;;;;;;5066627;28;20033;-79
2023/05/21 07:20:12;;;;;;;12.40;6.97;;;15.00;99.90;;;;;;5063315;28;20060;-77
2023/05/21 07:22:38;;;;;;;11.90;7.18;;;15.10;99.90;;;;;;5061478;28;20040;-77
2023/05/21 07:25:05;;;;;;;10.77;6.95;;;15.10;99.90;;;;;;5056003;28;20020;-76
2023/05/21 07:27:31;;;;;;;10.50;7.03;;;15.20;99.90;;;;;;5052683;28;20152;-77
2023/05/21 07:29:56;;;;;;;11.40;7.53;;;15.10;99.90;;;;;;5055641;28;20104;-77
2023/05/21 07:32:22;;;;;;;18.90;8.65;;;15.20;99.90;;;;;;5045781;28;20040;-79
2023/05/21 07:34:48;;;;;;;11.00;6.55;;;15.10;99.90;;;;;;5046665;28;20025;-79
2023/05/21 07:37:13;;;;;;;9.40;6.57;;;15.20;99.90;;;;;;5050259;28;20576;-79
2023/05/21 07:39:39;;;;;;;12.50;7.85;;;15.30;99.90;;;;;;5061719;28;20025;-79
2023/05/21 07:42:05;;;;;;;10.95;6.85;;;15.30;99.90;;;;;;5068415;28;20158;-79
2023/05/21 07:44:30;;;;;;;10.65;7.72;;;15.30;99.90;;;;;;5069583;28;20040;-78
2023/05/21 07:46:56;;;;;;;14.27;7.32;;;15.40;99.90;;;;;;5069479;28;20447;-79
2023/05/21 07:49:22;;;;;;;9.65;6.78;;;15.60;99.90;;;;;;5063504;28;20471;-79
2023/05/21 07:51:49;;;;;;;10.43;6.95;;;15.60;99.90;;;;;;5053842;28;20032;-79
2023/05/21 07:54:15;;;;;;;9.48;6.80;;;15.80;99.90;;;;;;5068285;28;20103;-79
2023/05/21 07:56:41;;;;;;;10.35;7.55;;;15.80;99.90;;;;;;5066818;28;20132;-79
2023/05/21 07:59:06;;;;;;;9.63;6.80;;;16.00;99.90;;;;;;5064797;28;20552;-78
2023/05/21 08:01:32;;;;;;;11.25;8.05;;;16.10;99.90;;;;;;5046153;28;20021;-79
2023/05/21 08:04:04;;;;;;;11.07;7.78;;;16.10;99.90;;;;;;5043912;28;20025;-77
2023/05/21 08:06:30;;;;;;;9.57;6.93;;;16.20;99.90;;;;;;5047346;28;20033;-77
2023/05/21 08:08:56;;;;;;;11.90;7.88;;;16.20;99.90;;;;;;5051085;28;20032;-77
2023/05/21 08:11:22;;;;;;;10.13;6.38;;;16.30;99.90;;;;;;5052792;28;20556;-77
2023/05/21 08:13:47;;;;;;;9.32;6.00;;;16.30;99.90;;;;;;5045119;28;20025;-76
2023/05/21 08:16:13;;;;;;;9.45;7.00;;;16.20;99.90;;;;;;5056538;28;20029;-77
2023/05/21 08:18:40;;;;;;;9.88;6.38;;;16.40;99.90;;;;;;5045021;28;20410;-76
2023/05/21 08:21:05;;;;;;;11.75;6.60;;;16.60;99.90;;;;;;5045670;28;20037;-76
2023/05/21 08:23:31;;;;;;;9.48;6.55;;;16.80;99.90;;;;;;5049930;28;20035;-77
2023/05/21 08:25:57;;;;;;;9.50;6.35;;;16.90;99.90;;;;;;5045406;28;20025;-77
2023/05/21 08:28:22;;;;;;;8.07;6.07;;;16.80;99.90;;;;;;5043219;28;20077;-76
2023/05/21 08:30:48;;;;;;;9.07;6.28;;;16.90;99.90;;;;;;5043259;28;20057;-77
2023/05/21 08:33:15;;;;;;;9.80;6.93;;;17.10;99.90;;;;;;5044269;28;20025;-77
2023/05/21 08:35:41;;;;;;;10.32;6.43;;;17.40;99.90;;;;;;5048766;28;20043;-76
2023/05/21 08:38:07;;;;;;;9.85;6.95;;;17.20;99.90;;;;;;5049553;28;20033;-77
2023/05/21 08:40:33;;;;;;;11.30;7.40;;;16.90;99.90;;;;;;5044337;28;20601;-76
2023/05/21 08:43:00;;;;;;;9.32;7.07;;;16.90;99.90;;;;;;5051011;28;20036;-77
2023/05/21 08:45:26;;;;;;;9.25;6.30;;;16.90;99.90;;;;;;5044296;28;20025;-77
2023/05/21 08:47:56;;;;;;;10.30;6.93;;;16.90;99.90;;;;;;5050261;28;20430;-77
2023/05/21 08:50:25;;;;;;;10.85;8.05;;;16.90;99.90;;;;;;5044823;28;20024;-77
2023/05/21 08:52:51;;;;;;;10.65;7.20;;;17.00;99.90;;;;;;5044513;28;20024;-76
2023/05/21 08:55:17;;;;;;;11.18;7.88;;;17.20;99.90;;;;;;5042842;28;20479;-76
2023/05/21 08:57:43;;;;;;;11.38;8.07;;;17.30;99.90;;;;;;5050149;28;20078;-79
2023/05/21 09:00:11;;;;;;;9.05;6.40;;;17.40;99.90;;;;;;5048754;28;20406;-79
2023/05/21 09:02:39;;;;;;;9.48;6.90;;;17.70;99.90;;;;;;5046939;28;20098;-78
2023/05/21 09:05:08;;;;;;;8.88;6.88;;;18.10;99.90;;;;;;5046085;28;20496;-77
2023/05/21 09:07:44;;;;;;;9.45;6.45;;;18.50;99.90;;;;;;5048247;28;20036;-77
2023/05/21 09:10:15;;;;;;;10.65;7.07;;;18.90;99.90;;;;;;5042987;28;20036;-77
2023/05/21 09:12:41;;;;;;;10.25;6.65;;;19.00;99.90;;;;;;5043632;28;20021;-76
2023/05/21 09:15:07;;;;;;;8.57;6.63;;;19.10;99.90;;;;;;5049945;28;20379;-77
2023/05/21 09:17:33;;;;;;;8.90;6.45;;;19.50;99.90;;;;;;5050901;28;20036;-77
2023/05/21 09:20:15;;;;;;;8.30;6.20;;;19.80;99.90;;;;;;5050683;28;20532;-76
2023/05/21 09:22:47;;;;;;;9.90;6.75;;;19.70;99.90;;;;;;5051595;28;20024;-77
2023/05/21 09:25:22;;;;;;;12.75;7.18;;;19.70;99.90;;;;;;5047092;28;20048;-77
2023/05/21 09:27:48;;;;;;;9.52;6.57;;;19.40;99.90;;;;;;5044495;28;20025;-77
2023/05/21 09:30:16;;;;;;;8.57;6.43;;;19.10;99.90;;;;;;5043428;28;20071;-76
2023/05/21 09:32:43;;;;;;;8.40;6.00;;;18.80;99.90;;;;;;5045560;28;20159;-76
2023/05/21 09:35:11;;;;;;;9.18;6.00;;;18.90;99.90;;;;;;5043386;28;20108;-76
2023/05/21 09:37:42;;;;;;;9.57;6.93;;;19.20;99.90;;;;;;5043926;28;20040;-77
2023/05/21 09:40:15;;;;;;;10.95;6.30;;;19.40;99.90;;;;;;5046709;28;20021;-77
2023/05/21 09:42:49;;;;;;;8.43;6.47;;;19.60;99.90;;;;;;5044578;28;20487;-77
2023/05/21 09:45:21;;;;;;;;;;;19.80;99.90;;;;;;5043962;28;20036;-77
2023/05/21 09:47:48;;;;;;;8.98;6.18;;;20.20;99.90;;;;;;5045758;28;19924;-77
2023/05/21 09:50:28;;;;;;;9.55;6.30;;;20.20;99.90;;;;;;5057277;28;20056;-77
2023/05/21 09:52:54;;;;;;;9.70;7.22;;;19.80;99.90;;;;;;5051158;28;20032;-76
2023/05/21 09:55:27;;;;;;;17.60;7.93;;;19.40;99.90;;;;;;5049815;28;20064;-77
2023/05/21 09:57:53;;;;;;;9.65;6.68;;;19.70;99.90;;;;;;5047659;28;20542;-77
2023/05/21 10:00:26;;;;;;;7.82;6.10;;;20.10;99.90;;;;;;5049614;28;20114;-77
2023/05/21 10:02:56;;;;;;;10.95;6.47;;;20.30;99.90;;;;;;5046673;28;20099;-77
2023/05/21 10:05:26;;;;;;;8.00;6.50;;;20.60;99.90;;;;;;5048629;28;20032;-77
2023/05/21 10:07:55;;;;;;;8.82;6.53;;;20.50;99.90;;;;;;5047992;28;20638;-77
2023/05/21 10:10:24;;;;;;;9.98;6.57;;;20.70;99.90;;;;;;5049553;28;20082;-76
2023/05/21 10:12:58;;;;;;;10.25;7.20;;;20.30;99.90;;;;;;5045438;28;20456;-77
2023/05/21 10:15:26;;;;;;;8.82;6.35;;;20.10;99.90;;;;;;5043139;28;20059;-77
2023/05/21 10:17:54;;;;;;;10.77;7.15;;;20.10;99.90;;;;;;5043692;28;20041;-77
2023/05/21 10:20:21;;;;;;;9.48;6.60;;;19.90;99.90;;;;;;5044913;28;20427;-77
2023/05/21 10:22:49;;;;;;;9.10;6.88;;;19.70;99.90;;;;;;5063151;28;20025;-77
2023/05/21 10:25:15;;;;;;;8.40;5.97;;;19.80;99.90;;;;;;5045483;28;20037;-77
2023/05/21 10:27:41;;;;;;;9.00;6.63;;;19.80;99.90;;;;;;5050624;28;20025;-77
2023/05/21 10:30:08;;;;;;;11.15;6.93;;;19.80;99.90;;;;;;5045915;28;20039;-77
2023/05/21 10:32:34;;;;;;;14.52;6.55;;;19.60;99.90;;;;;;5047448;28;20037;-77
2023/05/21 10:35:01;;;;;;;9.70;6.82;;;19.60;99.90;;;;;;5046686;28;20745;-77
2023/05/21 10:37:27;;;;;;;9.18;6.85;;;19.60;99.90;;;;;;5044051;28;20075;-77
2023/05/21 10:39:54;;;;;;;8.93;6.35;;;19.70;99.90;;;;;;5042655;28;20037;-77
2023/05/21 10:42:32;;;;;;;10.77;6.38;;;19.90;99.90;;;;;;5048353;28;20098;-77
2023/05/21 10:45:49;;;;;;;11.93;7.28;;;20.20;99.90;;;;;;5046115;28;20499;-77
2023/05/21 10:48:43;;;;;;;9.95;6.50;;;20.90;99.90;;;;;;5045288;28;20029;-77
2023/05/21 10:51:15;;;;;;;12.43;6.72;;;21.30;99.90;;;;;;5014382;28;20056;-77
2023/05/21 10:53:50;;;;;;;11.60;6.70;;;21.80;99.90;;;;;;5047225;28;20021;-76
2023/05/21 10:56:40;;;;;;;9.73;7.18;;;21.80;99.90;;;;;;5051841;28;20529;-77
2023/05/21 10:59:20;;;;;;;10.43;6.72;;;21.60;99.90;;;;;;5051147;28;20513;-77
2023/05/21 11:01:51;;;;;;;8.70;6.22;;;21.80;99.90;;;;;;5047881;28;20455;-77
2023/05/21 11:04:27;;;;;;;12.23;6.88;;;21.60;99.90;;;;;;5049632;28;20572;-77
2023/05/21 11:06:55;;;;;;;8.77;5.85;;;21.30;99.90;;;;;;5046720;28;20503;-77
2023/05/21 11:09:20;;;;;;;10.20;6.97;;;21.90;99.90;;;;;;5049956;28;20082;-76
2023/05/21 11:11:57;;;;;;;10.75;6.63;;;22.30;99.90;;;;;;5050561;28;20025;-79
2023/05/21 11:14:30;;;;;;;8.13;6.28;;;22.40;99.90;;;;;;5044334;28;20056;-76
2023/05/21 11:16:57;;;;;;;8.57;6.55;;;22.50;99.90;;;;;;5046220;28;20186;-77
2023/05/21 11:19:47;;;;;;;8.70;6.07;;;22.40;99.90;;;;;;5051206;28;20356;-76
2023/05/21 11:22:24;;;;;;;9.10;6.80;;;22.50;99.90;;;;;;5051183;28;20040;-76
2023/05/21 11:24:50;;;;;;;8.20;6.55;;;22.70;99.90;;;;;;5050010;28;20024;-77
2023/05/21 11:27:32;;;;;;;8.70;6.38;;;22.70;99.90;;;;;;5048151;28;20141;-78
2023/05/21 11:29:58;;;;;;;10.95;6.20;;;22.80;99.90;;;;;;5045790;28;20021;-78
2023/05/21 11:32:23;;;;;;;9.05;5.90;;;23.00;99.90;;;;;;5043897;28;20111;-81
2023/05/21 11:34:50;;;;;;;8.40;6.57;;;22.80;99.80;;;;;;5048697;28;20064;-79
2023/05/21 11:37:16;;;;;;;10.95;6.18;;;22.70;99.90;;;;;;5053436;28;20132;-78
2023/05/21 11:39:42;;;;;;;10.48;5.55;;;22.70;99.90;;;;;;5046520;28;20605;-78
2023/05/21 11:42:08;;;;;;;8.80;6.68;;;22.90;98.90;;;;;;5050245;28;20036;-79
2023/05/21 11:44:41;;;;;;;8.30;5.95;;;22.90;99.10;;;;;;5048752;28;20422;-80
2023/05/21 11:47:15;;;;;;;7.47;5.45;;;23.20;99.20;;;;;;5050987;28;20115;-78
2023/05/21 11:49:41;;;;;;;;;;;23.50;99.50;;;;;;5044241;28;20069;-79
2023/05/21 11:52:08;;;;;;;7.95;5.47;;;23.80;98.30;;;;;;5045607;28;19912;-78
2023/05/21 11:54:44;;;;;;;9.88;5.47;;;23.80;97.30;;;;;;5047529;28;20463;-78
2023/05/21 11:57:13;;;;;;;10.07;5.90;;;23.50;97.60;;;;;;5048572;28;20063;-77
2023/05/21 11:59:40;;;;;;;8.60;6.60;;;23.50;98.60;;;;;;5043079;28;20032;-77
2023/05/21 12:02:06;;;;;;;8.65;5.47;;;23.60;97.40;;;;;;5041478;28;20108;-78
2023/05/21 12:04:36;;;;;;;8.60;6.28;;;23.90;97.80;;;;;;5050366;28;20478;-78
2023/05/21 12:07:09;;;;;;;8.18;5.97;;;24.20;98.70;;;;;;5042895;28;20075;-77
2023/05/21 12:09:42;;;;;;;18.07;6.47;;;24.10;97.30;;;;;;5047712;28;20462;-77
2023/05/21 12:12:09;;;;;;;9.15;5.82;;;24.40;98.60;;;;;;5047055;28;20175;-78
2023/05/21 12:14:38;;;;;;;9.57;6.05;;;24.50;96.00;;;;;;5045031;28;20122;-77
2023/05/21 12:17:05;;;;;;;9.30;6.20;;;24.20;95.80;;;;;;5046342;28;20702;-78
2023/05/21 12:19:35;;;;;;;8.25;5.57;;;24.20;96.30;;;;;;5048928;28;20029;-78
2023/05/21 12:22:02;;;;;;;7.53;5.43;;;24.50;96.30;;;;;;5051194;28;20119;-78
2023/05/21 12:24:29;;;;;;;8.93;6.43;;;24.40;94.70;;;;;;5050702;28;20047;-77
2023/05/21 12:26:58;;;;;;;8.63;5.93;;;24.50;97.00;;;;;;5054934;28;20502;-77
2023/05/21 12:29:25;;;;;;;9.45;5.80;;;24.70;95.30;;;;;;5057230;28;20376;-77
2023/05/21 12:31:51;;;;;;;7.10;5.40;;;24.60;94.70;;;;;;5055694;28;20051;-78
2023/05/21 12:34:39;;;;;;;8.93;4.97;;;24.60;95.10;;;;;;5058013;28;20056;-78
2023/05/21 12:37:06;;;;;;;10.30;5.95;;;24.70;94.50;;;;;;5059436;28;20101;-77
2023/05/21 12:39:53;;;;;;;10.18;5.97;;;25.10;95.90;;;;;;5059214;28;20430;-78